Airfield :
LOGIN :

Register | Disclaimer

   EN    FR    IT 

 










Legend :    VFR   Marginal VFR   IFR   Intensive IFR   Very Intensive IFR
Visi :
Ceiling :
>= 8 km
>= 3000ft
5 to 8 km
1000 to 3000 ft
1500m to 5 km
500 to 1000 ft
800 to 1500m
200 to 500 ft
< 800m
< 200 ft
Symbols :   Thunderstorms  Fog  Heavy snow  Heavy precipitations  Wind > 20 kt
SIGMETs :     Misc.  Thunderstorms  Icing  Turbulence  Mountain Waves  Volcanic Ashes






- Airport Elevation : 490 ft
- IATA code : BJF


ENBS - Båtsfjord

CURRENT METAR :
  • 031720Z VRB02KT 9000 -SN SCT007 BKN033 M03/M03 Q1016

EXPIRED METARs :
  • 031650Z 12003KT 9999 -SN SCT008 BKN026 M03/M03 Q1017
  • 031620Z VRB02KT 9999 -SN SCT010 BKN027 M03/M03 Q1017
  • 031550Z VRB01KT 9999 -SN FEW009 BKN032 M03/M03 Q1017
  • 031520Z VRB01KT 9000 -SN FEW023 SCT031 BKN035 M03/M03 Q1018
  • 031450Z VRB01KT 6000 -SN BKN029 M02/M02 Q1018
  • 031420Z AUTO 00000KT 9999 -SN FEW003/// BKN006/// OVC041/// M03/M03 Q1018
  • 031350Z AUTO VRB02KT 8000 -SN FEW003/// BKN021/// OVC035/// M03/M03 Q1018
  • 031320Z AUTO VRB03KT 4000 -SN ///032/// M03/M03 Q1018
  • 031250Z AUTO VRB01KT 2200 -SN ///034/// M02/M02 Q1019
  • 031220Z AUTO 00000KT 9999 -SN SCT005/// BKN010/// BKN018/// M02/M02 Q1019

TAF TAF ENBS
Valid from the 03 at 15:00 until the 03 at 23:00 UTC


031400Z 0315/0323 VRB03KT 9999 BKN020
TEMPO 0315/0323 0800 SHSN VV008



MET'MAP, your aeronautical weather chart ! - Copyright ORBIFLY December 2007 - Disclaimer

ORBIFLY MET'MAP TEAM :

Programming & Development : Alexandra Zaïnal
Original concept : Baudouin d'Aumeries
Technical & hardware support : Manuel Goepfert
Assistance : Marc-Olivier Méhu




SOURCES & CREDITS :

   NOAA